sensor_id;sensor_type;location;lat;lon;timestamp;pressure;altitude;pressure_sealevel;temperature;humidity
74075;BME280;62428;51.412;5.432;2023-06-10T00:02:04;101233.78;;;23.38;49.93
74075;BME280;62428;51.412;5.432;2023-06-10T00:04:29;101229.41;;;23.33;49.84
74075;BME280;62428;51.412;5.432;2023-06-10T00:06:55;101230.91;;;23.31;50.03
74075;BME280;62428;51.412;5.432;2023-06-10T00:09:20;101232.88;;;23.30;49.99
74075;BME280;62428;51.412;5.432;2023-06-10T00:11:46;101230.09;;;23.27;50.22
74075;BME280;62428;51.412;5.432;2023-06-10T00:14:11;101229.25;;;23.22;50.10
74075;BME280;62428;51.412;5.432;2023-06-10T00:16:37;101233.50;;;23.20;50.39
74075;BME280;62428;51.412;5.432;2023-06-10T00:19:04;101235.41;;;23.16;50.26
74075;BME280;62428;51.412;5.432;2023-06-10T00:21:30;101231.88;;;23.15;50.30
74075;BME280;62428;51.412;5.432;2023-06-10T00:24:05;101229.88;;;23.12;50.18
74075;BME280;62428;51.412;5.432;2023-06-10T00:26:31;101235.72;;;23.11;50.44
74075;BME280;62428;51.412;5.432;2023-06-10T00:28:57;101235.72;;;23.11;49.95
74075;BME280;62428;51.412;5.432;2023-06-10T00:31:23;101234.50;;;23.08;49.97
74075;BME280;62428;51.412;5.432;2023-06-10T00:33:48;101228.97;;;23.05;50.43
74075;BME280;62428;51.412;5.432;2023-06-10T00:36:14;101247.38;;;23.04;50.78
74075;BME280;62428;51.412;5.432;2023-06-10T00:38:39;101240.19;;;22.99;50.34
74075;BME280;62428;51.412;5.432;2023-06-10T00:41:06;101242.09;;;22.95;50.37
74075;BME280;62428;51.412;5.432;2023-06-10T00:43:32;101238.94;;;22.93;50.56
74075;BME280;62428;51.412;5.432;2023-06-10T00:45:57;101240.44;;;22.91;50.49
74075;BME280;62428;51.412;5.432;2023-06-10T00:48:23;101243.94;;;22.88;50.77
74075;BME280;62428;51.412;5.432;2023-06-10T00:50:48;101236.88;;;22.87;50.64
74075;BME280;62428;51.412;5.432;2023-06-10T00:53:14;101241.94;;;22.84;50.78
74075;BME280;62428;51.412;5.432;2023-06-10T00:55:40;101240.72;;;22.82;50.61
74075;BME280;62428;51.412;5.432;2023-06-10T00:58:06;101241.44;;;22.79;50.66
74075;BME280;62428;51.412;5.432;2023-06-10T01:00:32;101240.66;;;22.78;50.70
74075;BME280;62428;51.412;5.432;2023-06-10T01:02:57;101236.25;;;22.74;50.78
74075;BME280;62428;51.412;5.432;2023-06-10T01:05:23;101239.72;;;22.71;50.73
74075;BME280;62428;51.412;5.432;2023-06-10T01:08:01;101238.50;;;22.68;50.77
74075;BME280;62428;51.412;5.432;2023-06-10T01:10:38;101244.72;;;22.65;50.69
74075;BME280;62428;51.412;5.432;2023-06-10T01:13:08;101234.50;;;22.62;50.98
74075;BME280;62428;51.412;5.432;2023-06-10T01:15:37;101234.88;;;22.60;51.00
74075;BME280;62428;51.412;5.432;2023-06-10T01:18:04;101238.69;;;22.56;50.89
74075;BME280;62428;51.412;5.432;2023-06-10T01:20:34;101240.22;;;22.53;51.21
74075;BME280;62428;51.412;5.432;2023-06-10T01:23:00;101235.81;;;22.49;51.15
74075;BME280;62428;51.412;5.432;2023-06-10T01:25:28;101239.66;;;22.44;51.15
74075;BME280;62428;51.412;5.432;2023-06-10T01:28:02;101240.72;;;22.39;51.20
74075;BME280;62428;51.412;5.432;2023-06-10T01:30:31;101235.19;;;22.36;51.43
74075;BME280;62428;51.412;5.432;2023-06-10T01:32:59;101234.41;;;22.35;51.46
74075;BME280;62428;51.412;5.432;2023-06-10T01:35:25;101233.97;;;22.33;51.73
74075;BME280;62428;51.412;5.432;2023-06-10T01:37:54;101239.03;;;22.31;51.61
74075;BME280;62428;51.412;5.432;2023-06-10T01:40:23;101243.25;;;22.29;51.68
74075;BME280;62428;51.412;5.432;2023-06-10T01:42:48;101241.25;;;22.25;51.82
74075;BME280;62428;51.412;5.432;2023-06-10T01:45:14;101239.22;;;22.22;51.80
74075;BME280;62428;51.412;5.432;2023-06-10T01:47:39;101239.50;;;22.17;51.82
74075;BME280;62428;51.412;5.432;2023-06-10T01:50:05;101239.00;;;22.12;51.94
74075;BME280;62428;51.412;5.432;2023-06-10T01:52:31;101238.50;;;22.06;52.12
74075;BME280;62428;51.412;5.432;2023-06-10T01:54:56;101245.50;;;22.03;52.12
74075;BME280;62428;51.412;5.432;2023-06-10T01:57:21;101242.63;;;21.96;52.21
74075;BME280;62428;51.412;5.432;2023-06-10T01:59:47;101243.69;;;21.92;52.22
74075;BME280;62428;51.412;5.432;2023-06-10T02:02:12;101243.19;;;21.86;52.21
74075;BME280;62428;51.412;5.432;2023-06-10T02:04:37;101243.38;;;21.77;52.49
74075;BME280;62428;51.412;5.432;2023-06-10T02:07:03;101246.03;;;21.74;52.79
74075;BME280;62428;51.412;5.432;2023-06-10T02:09:30;101245.25;;;21.73;52.71
74075;BME280;62428;51.412;5.432;2023-06-10T02:11:55;101253.38;;;21.69;52.80
74075;BME280;62428;51.412;5.432;2023-06-10T02:14:21;101247.47;;;21.67;52.56
74075;BME280;62428;51.412;5.432;2023-06-10T02:16:46;101243.81;;;21.60;52.67
74075;BME280;62428;51.412;5.432;2023-06-10T02:19:12;101245.28;;;21.57;52.91
74075;BME280;62428;51.412;5.432;2023-06-10T02:21:38;101254.56;;;21.53;52.99
74075;BME280;62428;51.412;5.432;2023-06-10T02:24:04;101251.34;;;21.47;53.13
74075;BME280;62428;51.412;5.432;2023-06-10T02:26:29;101253.63;;;21.45;53.29
74075;BME280;62428;51.412;5.432;2023-06-10T02:28:55;101254.41;;;21.45;52.94
74075;BME280;62428;51.412;5.432;2023-06-10T02:31:20;101253.50;;;21.41;53.08
74075;BME280;62428;51.412;5.432;2023-06-10T02:33:46;101256.88;;;21.35;53.56
74075;BME280;62428;51.412;5.432;2023-06-10T02:36:11;101256.34;;;21.29;53.52
74075;BME280;62428;51.412;5.432;2023-06-10T02:38:39;101255.41;;;21.21;53.86
74075;BME280;62428;51.412;5.432;2023-06-10T02:41:05;101258.03;;;21.18;53.87
74075;BME280;62428;51.412;5.432;2023-06-10T02:43:31;101256.34;;;21.13;54.02
74075;BME280;62428;51.412;5.432;2023-06-10T02:45:56;101255.84;;;21.07;54.10
74075;BME280;62428;51.412;5.432;2023-06-10T02:48:23;101258.81;;;21.02;54.24
74075;BME280;62428;51.412;5.432;2023-06-10T02:50:49;101252.50;;;20.98;54.58
74075;BME280;62428;51.412;5.432;2023-06-10T02:53:14;101255.13;;;20.95;54.47
74075;BME280;62428;51.412;5.432;2023-06-10T02:55:40;101246.50;;;20.92;54.46
74075;BME280;62428;51.412;5.432;2023-06-10T02:58:06;101255.03;;;20.91;54.32
74075;BME280;62428;51.412;5.432;2023-06-10T03:00:32;101258.91;;;20.90;54.58
74075;BME280;62428;51.412;5.432;2023-06-10T03:02:58;101256.91;;;20.87;54.68
74075;BME280;62428;51.412;5.432;2023-06-10T03:05:29;101260.66;;;20.82;54.98
74075;BME280;62428;51.412;5.432;2023-06-10T03:07:55;101257.41;;;20.77;55.42
74075;BME280;62428;51.412;5.432;2023-06-10T03:10:20;101256.97;;;20.74;55.02
74075;BME280;62428;51.412;5.432;2023-06-10T03:12:45;101259.59;;;20.71;55.51
74075;BME280;62428;51.412;5.432;2023-06-10T03:15:11;101257.22;;;20.69;55.44
74075;BME280;62428;51.412;5.432;2023-06-10T03:17:36;101259.06;;;20.65;55.63
74075;BME280;62428;51.412;5.432;2023-06-10T03:20:02;101257.47;;;20.64;55.56
74075;BME280;62428;51.412;5.432;2023-06-10T03:22:30;101263.66;;;20.61;55.74
74075;BME280;62428;51.412;5.432;2023-06-10T03:24:56;101262.34;;;20.59;55.99
74075;BME280;62428;51.412;5.432;2023-06-10T03:27:22;101260.34;;;20.55;56.04
74075;BME280;62428;51.412;5.432;2023-06-10T03:29:47;101268.16;;;20.57;56.07
74075;BME280;62428;51.412;5.432;2023-06-10T03:32:14;101265.00;;;20.55;55.88
74075;BME280;62428;51.412;5.432;2023-06-10T03:34:40;101260.25;;;20.52;56.55
74075;BME280;62428;51.412;5.432;2023-06-10T03:37:05;101270.81;;;20.53;56.39
74075;BME280;62428;51.412;5.432;2023-06-10T03:39:32;101266.41;;;20.49;56.54
74075;BME280;62428;51.412;5.432;2023-06-10T03:41:57;101271.41;;;20.47;56.83
74075;BME280;62428;51.412;5.432;2023-06-10T03:44:24;101274.50;;;20.45;56.78
74075;BME280;62428;51.412;5.432;2023-06-10T03:46:50;101280.28;;;20.44;56.86
74075;BME280;62428;51.412;5.432;2023-06-10T03:49:17;101276.69;;;20.40;56.97
74075;BME280;62428;51.412;5.432;2023-06-10T03:51:42;101279.31;;;20.36;57.22
74075;BME280;62428;51.412;5.432;2023-06-10T03:54:08;101285.91;;;20.35;57.34
74075;BME280;62428;51.412;5.432;2023-06-10T03:56:33;101281.16;;;20.32;57.36
74075;BME280;62428;51.412;5.432;2023-06-10T03:58:58;101279.91;;;20.29;57.47
74075;BME280;62428;51.412;5.432;2023-06-10T04:01:24;101279.44;;;20.27;57.49
74075;BME280;62428;51.412;5.432;2023-06-10T04:03:49;101285.34;;;20.29;57.65
74075;BME280;62428;51.412;5.432;2023-06-10T04:06:16;101280.13;;;20.24;58.12
74075;BME280;62428;51.412;5.432;2023-06-10T04:08:42;101286.31;;;20.21;58.11
74075;BME280;62428;51.412;5.432;2023-06-10T04:11:08;101289.72;;;20.18;58.25
74075;BME280;62428;51.412;5.432;2023-06-10T04:13:33;101285.53;;;20.21;58.67
74075;BME280;62428;51.412;5.432;2023-06-10T04:15:59;101288.25;;;20.21;58.83
74075;BME280;62428;51.412;5.432;2023-06-10T04:18:24;101275.97;;;20.14;58.78
74075;BME280;62428;51.412;5.432;2023-06-10T04:20:50;101281.66;;;20.09;59.00
74075;BME280;62428;51.412;5.432;2023-06-10T04:23:16;101285.88;;;20.07;59.26
74075;BME280;62428;51.412;5.432;2023-06-10T04:25:41;101293.28;;;20.06;59.26
74075;BME280;62428;51.412;5.432;2023-06-10T04:28:07;101294.75;;;20.04;59.65
74075;BME280;62428;51.412;5.432;2023-06-10T04:30:32;101300.53;;;20.02;59.94
74075;BME280;62428;51.412;5.432;2023-06-10T04:32:58;101306.00;;;20.02;59.80
74075;BME280;62428;51.412;5.432;2023-06-10T04:35:24;101302.38;;;19.98;60.08
74075;BME280;62428;51.412;5.432;2023-06-10T04:37:51;101303.53;;;19.97;60.18
74075;BME280;62428;51.412;5.432;2023-06-10T04:40:17;101305.09;;;19.98;60.34
74075;BME280;62428;51.412;5.432;2023-06-10T04:42:42;101300.81;;;19.97;60.58
74075;BME280;62428;51.412;5.432;2023-06-10T04:45:08;101301.59;;;19.97;60.60
74075;BME280;62428;51.412;5.432;2023-06-10T04:47:34;101302.03;;;20.00;60.56
74075;BME280;62428;51.412;5.432;2023-06-10T04:50:00;101302.81;;;20.00;60.48
74075;BME280;62428;51.412;5.432;2023-06-10T04:52:26;101302.38;;;19.98;60.76
74075;BME280;62428;51.412;5.432;2023-06-10T04:54:52;101309.31;;;19.95;61.43
74075;BME280;62428;51.412;5.432;2023-06-10T04:57:18;101301.16;;;19.95;61.42
74075;BME280;62428;51.412;5.432;2023-06-10T04:59:43;101305.56;;;20.00;60.91
74075;BME280;62428;51.412;5.432;2023-06-10T05:02:08;101309.53;;;20.03;61.54
74075;BME280;62428;51.412;5.432;2023-06-10T05:04:34;101308.03;;;20.05;61.16
74075;BME280;62428;51.412;5.432;2023-06-10T05:06:59;101305.44;;;20.09;61.84
74075;BME280;62428;51.412;5.432;2023-06-10T05:09:25;101311.78;;;20.13;61.42
74075;BME280;62428;51.412;5.432;2023-06-10T05:11:51;101311.88;;;20.16;61.47
74075;BME280;62428;51.412;5.432;2023-06-10T05:14:18;101313.59;;;20.21;61.11
74075;BME280;62428;51.412;5.432;2023-06-10T05:16:44;101310.50;;;20.23;60.90
74075;BME280;62428;51.412;5.432;2023-06-10T05:19:09;101311.75;;;20.25;60.88
74075;BME280;62428;51.412;5.432;2023-06-10T05:21:35;101306.72;;;20.27;60.93
74075;BME280;62428;51.412;5.432;2023-06-10T05:24:00;101303.75;;;20.32;60.83
74075;BME280;62428;51.412;5.432;2023-06-10T05:26:25;101311.72;;;20.38;60.88
74075;BME280;62428;51.412;5.432;2023-06-10T05:28:51;101307.91;;;20.42;61.01
74075;BME280;62428;51.412;5.432;2023-06-10T05:31:16;101312.78;;;20.49;61.05
74075;BME280;62428;51.412;5.432;2023-06-10T05:33:41;101311.75;;;20.53;60.85
74075;BME280;62428;51.412;5.432;2023-06-10T05:36:07;101306.38;;;20.57;60.40
74075;BME280;62428;51.412;5.432;2023-06-10T05:38:32;101314.22;;;20.59;60.32
74075;BME280;62428;51.412;5.432;2023-06-10T05:40:57;101308.53;;;20.64;60.04
74075;BME280;62428;51.412;5.432;2023-06-10T05:43:24;101313.41;;;20.70;60.44
74075;BME280;62428;51.412;5.432;2023-06-10T05:45:49;101313.84;;;20.72;59.92
74075;BME280;62428;51.412;5.432;2023-06-10T05:48:15;101309.63;;;20.75;59.84
74075;BME280;62428;51.412;5.432;2023-06-10T05:50:40;101319.84;;;20.78;60.19
74075;BME280;62428;51.412;5.432;2023-06-10T05:53:13;101315.72;;;20.84;59.57
74075;BME280;62428;51.412;5.432;2023-06-10T05:55:44;101314.22;;;20.87;59.22
74075;BME280;62428;51.412;5.432;2023-06-10T05:58:10;101313.59;;;20.93;59.35
74075;BME280;62428;51.412;5.432;2023-06-10T06:00:38;101324.38;;;21.02;59.13
74075;BME280;62428;51.412;5.432;2023-06-10T06:03:03;101324.56;;;21.09;59.03
74075;BME280;62428;51.412;5.432;2023-06-10T06:05:29;101318.13;;;21.18;59.00
74075;BME280;62428;51.412;5.432;2023-06-10T06:08:03;101323.06;;;21.28;58.42
74075;BME280;62428;51.412;5.432;2023-06-10T06:10:28;101322.88;;;21.37;57.61
74075;BME280;62428;51.412;5.432;2023-06-10T06:12:54;101323.53;;;21.46;58.05
74075;BME280;62428;51.412;5.432;2023-06-10T06:15:19;101311.78;;;21.61;57.87
74075;BME280;62428;51.412;5.432;2023-06-10T06:17:45;101322.31;;;21.79;57.04
74075;BME280;62428;51.412;5.432;2023-06-10T06:20:11;101321.03;;;21.92;56.38
74075;BME280;62428;51.412;5.432;2023-06-10T06:22:37;101321.28;;;22.03;55.72
74075;BME280;62428;51.412;5.432;2023-06-10T06:25:02;101324.59;;;22.12;55.70
74075;BME280;62428;51.412;5.432;2023-06-10T06:27:28;101322.44;;;22.21;55.63
74075;BME280;62428;51.412;5.432;2023-06-10T06:29:54;101334.47;;;22.33;55.27
74075;BME280;62428;51.412;5.432;2023-06-10T06:32:20;101336.75;;;22.50;55.19
74075;BME280;62428;51.412;5.432;2023-06-10T06:34:47;101325.00;;;22.69;55.38
74075;BME280;62428;51.412;5.432;2023-06-10T06:37:14;101331.59;;;22.88;54.14
74075;BME280;62428;51.412;5.432;2023-06-10T06:39:41;101331.94;;;23.06;54.26
74075;BME280;62428;51.412;5.432;2023-06-10T06:42:07;101338.03;;;23.18;53.72
74075;BME280;62428;51.412;5.432;2023-06-10T06:44:32;101336.63;;;23.28;52.99
74075;BME280;62428;51.412;5.432;2023-06-10T06:46:59;101335.72;;;23.47;53.54
74075;BME280;62428;51.412;5.432;2023-06-10T06:49:25;101343.50;;;23.68;52.77
74075;BME280;62428;51.412;5.432;2023-06-10T06:51:51;101338.84;;;23.72;51.03
74075;BME280;62428;51.412;5.432;2023-06-10T06:54:16;101351.41;;;23.73;51.45
74075;BME280;62428;51.412;5.432;2023-06-10T06:56:42;101337.47;;;23.82;51.30
74075;BME280;62428;51.412;5.432;2023-06-10T06:59:07;101337.66;;;23.96;50.48
74075;BME280;62428;51.412;5.432;2023-06-10T07:01:33;101343.75;;;24.13;50.10
74075;BME280;62428;51.412;5.432;2023-06-10T07:04:00;101345.47;;;24.25;49.79
74075;BME280;62428;51.412;5.432;2023-06-10T07:06:25;101340.16;;;24.39;49.78
74075;BME280;62428;51.412;5.432;2023-06-10T07:08:54;101351.56;;;24.41;49.41
74075;BME280;62428;51.412;5.432;2023-06-10T07:11:19;101342.63;;;24.48;49.11
74075;BME280;62428;51.412;5.432;2023-06-10T07:13:45;101353.69;;;24.55;48.17
74075;BME280;62428;51.412;5.432;2023-06-10T07:16:10;101356.47;;;24.59;48.13
74075;BME280;62428;51.412;5.432;2023-06-10T07:18:36;101353.03;;;24.65;48.11
74075;BME280;62428;51.412;5.432;2023-06-10T07:21:02;101348.41;;;24.73;48.59
74075;BME280;62428;51.412;5.432;2023-06-10T07:23:27;101353.31;;;24.90;49.50
74075;BME280;62428;51.412;5.432;2023-06-10T07:25:52;101352.34;;;25.17;47.80
74075;BME280;62428;51.412;5.432;2023-06-10T07:28:18;101360.38;;;25.32;47.63
74075;BME280;62428;51.412;5.432;2023-06-10T07:30:43;101354.56;;;25.41;47.21
74075;BME280;62428;51.412;5.432;2023-06-10T07:33:08;101352.66;;;25.49;45.88
74075;BME280;62428;51.412;5.432;2023-06-10T07:35:35;101350.72;;;25.57;47.08
74075;BME280;62428;51.412;5.432;2023-06-10T07:38:00;101360.25;;;25.70;46.91
74075;BME280;62428;51.412;5.432;2023-06-10T07:40:26;101365.00;;;25.77;46.08
74075;BME280;62428;51.412;5.432;2023-06-10T07:42:51;101368.22;;;25.86;45.90
74075;BME280;62428;51.412;5.432;2023-06-10T07:45:18;101361.94;;;25.89;45.36
74075;BME280;62428;51.412;5.432;2023-06-10T07:47:43;101359.66;;;25.98;45.79
74075;BME280;62428;51.412;5.432;2023-06-10T07:50:09;101370.75;;;26.09;44.17
74075;BME280;62428;51.412;5.432;2023-06-10T07:52:34;101366.03;;;26.13;43.54
74075;BME280;62428;51.412;5.432;2023-06-10T07:55:00;101366.09;;;26.24;44.39
74075;BME280;62428;51.412;5.432;2023-06-10T07:57:25;101364.97;;;26.39;43.59
74075;BME280;62428;51.412;5.432;2023-06-10T07:59:50;101356.81;;;26.64;44.37
74075;BME280;62428;51.412;5.432;2023-06-10T08:02:16;101367.09;;;26.85;43.26
74075;BME280;62428;51.412;5.432;2023-06-10T08:04:41;101367.13;;;26.93;42.67
74075;BME280;62428;51.412;5.432;2023-06-10T08:07:06;101358.03;;;26.85;42.12
74075;BME280;62428;51.412;5.432;2023-06-10T08:09:32;101360.78;;;26.89;42.56
74075;BME280;62428;51.412;5.432;2023-06-10T08:11:57;101360.03;;;26.95;41.92
74075;BME280;62428;51.412;5.432;2023-06-10T08:14:24;101364.38;;;27.07;41.65
74075;BME280;62428;51.412;5.432;2023-06-10T08:16:49;101353.34;;;27.11;40.29
74075;BME280;62428;51.412;5.432;2023-06-10T08:19:15;101362.03;;;27.20;41.88
74075;BME280;62428;51.412;5.432;2023-06-10T08:21:40;101358.84;;;27.25;39.92
74075;BME280;62428;51.412;5.432;2023-06-10T08:24:06;101357.31;;;27.35;41.56
74075;BME280;62428;51.412;5.432;2023-06-10T08:26:32;101359.69;;;27.40;39.74
74075;BME280;62428;51.412;5.432;2023-06-10T08:28:57;101364.00;;;27.52;40.25
74075;BME280;62428;51.412;5.432;2023-06-10T08:31:23;101365.59;;;27.60;37.99
74075;BME280;62428;51.412;5.432;2023-06-10T08:33:48;101365.16;;;27.51;37.85
74075;BME280;62428;51.412;5.432;2023-06-10T08:36:13;101354.94;;;27.48;38.07
74075;BME280;62428;51.412;5.432;2023-06-10T08:38:39;101355.72;;;27.52;38.90
74075;BME280;62428;51.412;5.432;2023-06-10T08:41:05;101364.38;;;27.65;38.83
74075;BME280;62428;51.412;5.432;2023-06-10T08:43:44;101363.59;;;27.75;38.71
74075;BME280;62428;51.412;5.432;2023-06-10T08:46:11;101361.97;;;27.81;38.89
74075;BME280;62428;51.412;5.432;2023-06-10T08:48:42;101361.59;;;27.79;38.28
74075;BME280;62428;51.412;5.432;2023-06-10T08:51:09;101362.38;;;27.83;38.72
74075;BME280;62428;51.412;5.432;2023-06-10T08:53:36;101371.44;;;27.94;38.18
74075;BME280;62428;51.412;5.432;2023-06-10T08:56:04;101365.13;;;27.94;38.00
74075;BME280;62428;51.412;5.432;2023-06-10T08:58:32;101367.50;;;27.95;38.27
74075;BME280;62428;51.412;5.432;2023-06-10T09:00:58;101359.59;;;28.01;39.79
74075;BME280;62428;51.412;5.432;2023-06-10T09:03:25;101358.41;;;28.09;37.32
74075;BME280;62428;51.412;5.432;2023-06-10T09:05:50;101360.31;;;28.16;38.56
74075;BME280;62428;51.412;5.432;2023-06-10T09:08:16;101357.19;;;28.14;37.72
74075;BME280;62428;51.412;5.432;2023-06-10T09:10:41;101359.19;;;28.10;36.60
74075;BME280;62428;51.412;5.432;2023-06-10T09:13:07;101358.34;;;28.13;36.65
74075;BME280;62428;51.412;5.432;2023-06-10T09:15:32;101352.00;;;28.23;37.42
74075;BME280;62428;51.412;5.432;2023-06-10T09:17:59;101364.22;;;28.29;36.90
74075;BME280;62428;51.412;5.432;2023-06-10T09:20:24;101356.72;;;28.30;37.06
74075;BME280;62428;51.412;5.432;2023-06-10T09:22:50;101360.63;;;28.36;37.35
74075;BME280;62428;51.412;5.432;2023-06-10T09:25:15;101355.88;;;28.40;36.36
74075;BME280;62428;51.412;5.432;2023-06-10T09:27:50;101361.84;;;28.31;36.41
74075;BME280;62428;51.412;5.432;2023-06-10T09:30:34;101360.28;;;28.30;37.25
74075;BME280;62428;51.412;5.432;2023-06-10T09:33:09;101357.13;;;28.25;36.51
74075;BME280;62428;51.412;5.432;2023-06-10T09:35:35;101353.94;;;28.33;35.98
74075;BME280;62428;51.412;5.432;2023-06-10T09:38:00;101350.78;;;28.38;35.15
74075;BME280;62428;51.412;5.432;2023-06-10T09:40:27;101345.25;;;28.42;37.10
74075;BME280;62428;51.412;5.432;2023-06-10T09:42:54;101348.75;;;28.50;37.01
74075;BME280;62428;51.412;5.432;2023-06-10T09:45:20;101349.13;;;28.52;35.31
74075;BME280;62428;51.412;5.432;2023-06-10T09:47:47;101341.63;;;28.56;36.16
74075;BME280;62428;51.412;5.432;2023-06-10T09:50:13;101343.13;;;28.71;36.69
74075;BME280;62428;51.412;5.432;2023-06-10T09:52:38;101344.63;;;28.80;35.87
74075;BME280;62428;51.412;5.432;2023-06-10T09:55:08;101344.16;;;28.92;35.35
74075;BME280;62428;51.412;5.432;2023-06-10T09:57:33;101343.38;;;28.91;34.11
74075;BME280;62428;51.412;5.432;2023-06-10T09:59:59;101336.31;;;28.83;34.84
74075;BME280;62428;51.412;5.432;2023-06-10T10:02:28;101339.47;;;28.85;34.64
74075;BME280;62428;51.412;5.432;2023-06-10T10:05:02;101337.09;;;28.84;34.60
74075;BME280;62428;51.412;5.432;2023-06-10T10:07:27;101329.09;;;28.97;37.28
74075;BME280;62428;51.412;5.432;2023-06-10T10:09:53;101334.94;;;29.06;34.52
74075;BME280;62428;51.412;5.432;2023-06-10T10:12:18;101331.84;;;29.00;32.94
74075;BME280;62428;51.412;5.432;2023-06-10T10:14:46;101329.47;;;28.99;33.50
74075;BME280;62428;51.412;5.432;2023-06-10T10:17:15;101331.41;;;29.05;34.92
74075;BME280;62428;51.412;5.432;2023-06-10T10:19:47;101329.81;;;29.08;34.52
74075;BME280;62428;51.412;5.432;2023-06-10T10:22:25;101334.13;;;29.16;34.50
74075;BME280;62428;51.412;5.432;2023-06-10T10:24:53;101325.81;;;29.12;33.46
74075;BME280;62428;51.412;5.432;2023-06-10T10:27:28;101329.03;;;29.07;33.39
74075;BME280;62428;51.412;5.432;2023-06-10T10:29:54;101334.19;;;29.02;33.59
74075;BME280;62428;51.412;5.432;2023-06-10T10:32:29;101329.88;;;29.01;33.80
74075;BME280;62428;51.412;5.432;2023-06-10T10:35:08;101331.75;;;29.11;34.58
74075;BME280;62428;51.412;5.432;2023-06-10T10:37:35;101323.81;;;29.20;33.02
74075;BME280;62428;51.412;5.432;2023-06-10T10:40:01;101326.94;;;29.22;33.53
74075;BME280;62428;51.412;5.432;2023-06-10T10:42:28;101320.56;;;29.29;34.35
74075;BME280;62428;51.412;5.432;2023-06-10T10:44:55;101317.34;;;29.38;33.41
74075;BME280;62428;51.412;5.432;2023-06-10T10:47:21;101323.19;;;29.43;32.43
74075;BME280;62428;51.412;5.432;2023-06-10T10:49:48;101322.16;;;29.30;32.55
74075;BME280;62428;51.412;5.432;2023-06-10T10:52:15;101318.94;;;29.31;33.25
74075;BME280;62428;51.412;5.432;2023-06-10T10:54:45;101325.28;;;29.32;33.18
74075;BME280;62428;51.412;5.432;2023-06-10T10:57:19;101312.63;;;29.31;33.18
74075;BME280;62428;51.412;5.432;2023-06-10T11:02:41;101315.81;;;29.29;32.85
74075;BME280;62428;51.412;5.432;2023-06-10T11:05:14;101319.75;;;29.32;32.60
74075;BME280;62428;51.412;5.432;2023-06-10T11:07:40;101304.72;;;29.33;32.06
74075;BME280;62428;51.412;5.432;2023-06-10T11:10:16;101312.94;;;29.40;31.48
74075;BME280;62428;51.412;5.432;2023-06-10T11:15:11;101307.78;;;29.42;31.82
74075;BME280;62428;51.412;5.432;2023-06-10T11:17:36;101309.00;;;29.41;32.79
74075;BME280;62428;51.412;5.432;2023-06-10T11:20:02;101303.81;;;29.47;32.51
74075;BME280;62428;51.412;5.432;2023-06-10T11:22:28;101295.41;;;29.54;32.18
74075;BME280;62428;51.412;5.432;2023-06-10T11:24:53;101288.59;;;29.62;31.25
74075;BME280;62428;51.412;5.432;2023-06-10T11:27:22;101300.84;;;29.65;31.50
74075;BME280;62428;51.412;5.432;2023-06-10T11:30:17;101294.50;;;29.64;32.09
74075;BME280;62428;51.412;5.432;2023-06-10T11:32:45;101294.78;;;29.77;32.66
74075;BME280;62428;51.412;5.432;2023-06-10T11:35:16;101286.03;;;29.82;30.90
74075;BME280;62428;51.412;5.432;2023-06-10T11:37:43;101286.88;;;29.79;31.04
74075;BME280;62428;51.412;5.432;2023-06-10T11:40:09;101286.44;;;29.81;31.03
74075;BME280;62428;51.412;5.432;2023-06-10T11:42:39;101279.53;;;29.96;31.21
74075;BME280;62428;51.412;5.432;2023-06-10T11:45:06;101285.75;;;30.04;30.44
74075;BME280;62428;51.412;5.432;2023-06-10T11:47:33;101278.13;;;30.12;31.26
74075;BME280;62428;51.412;5.432;2023-06-10T11:49:58;101293.13;;;30.18;30.70
74075;BME280;62428;51.412;5.432;2023-06-10T11:52:28;101274.63;;;30.07;29.95
74075;BME280;62428;51.412;5.432;2023-06-10T11:54:54;101278.22;;;30.04;29.93
74075;BME280;62428;51.412;5.432;2023-06-10T11:57:20;101280.19;;;30.07;31.06
74075;BME280;62428;51.412;5.432;2023-06-10T11:59:46;101287.25;;;30.12;29.65
74075;BME280;62428;51.412;5.432;2023-06-10T12:02:18;101280.91;;;30.12;28.48
74075;BME280;62428;51.412;5.432;2023-06-10T12:04:44;101282.53;;;30.09;27.69
74075;BME280;62428;51.412;5.432;2023-06-10T12:07:17;101270.63;;;30.12;29.84
74075;BME280;62428;51.412;5.432;2023-06-10T12:09:42;101270.09;;;30.21;29.87
74075;BME280;62428;51.412;5.432;2023-06-10T12:12:08;101277.63;;;30.20;28.62
74075;BME280;62428;51.412;5.432;2023-06-10T12:17:21;101260.75;;;30.11;28.63
74075;BME280;62428;51.412;5.432;2023-06-10T12:19:47;101260.75;;;30.11;29.51
74075;BME280;62428;51.412;5.432;2023-06-10T12:22:13;101267.00;;;30.15;29.48
74075;BME280;62428;51.412;5.432;2023-06-10T12:24:44;101253.13;;;30.19;29.14
74075;BME280;62428;51.412;5.432;2023-06-10T12:27:13;101260.88;;;30.31;29.42
74075;BME280;62428;51.412;5.432;2023-06-10T12:29:38;101259.16;;;30.41;27.97
74075;BME280;62428;51.412;5.432;2023-06-10T12:32:04;101262.28;;;30.43;28.39
74075;BME280;62428;51.412;5.432;2023-06-10T12:34:36;101260.00;;;30.38;27.87
74075;BME280;62428;51.412;5.432;2023-06-10T12:37:06;101262.03;;;30.34;28.56
74075;BME280;62428;51.412;5.432;2023-06-10T12:39:33;101259.25;;;30.34;28.83
74075;BME280;62428;51.412;5.432;2023-06-10T12:41:59;101269.56;;;30.33;29.09
74075;BME280;62428;51.412;5.432;2023-06-10T12:44:33;101267.97;;;30.32;28.62
74075;BME280;62428;51.412;5.432;2023-06-10T12:46:59;101262.84;;;30.31;27.34
74075;BME280;62428;51.412;5.432;2023-06-10T12:49:24;101258.09;;;30.31;28.85
74075;BME280;62428;51.412;5.432;2023-06-10T12:51:51;101255.31;;;30.31;28.50
74075;BME280;62428;51.412;5.432;2023-06-10T12:54:17;101265.59;;;30.34;29.52
74075;BME280;62428;51.412;5.432;2023-06-10T12:56:42;101261.63;;;30.32;26.55